Latest Weather Observations for Mount Nowa Nowa

IDV60801

Issued at 10:22 pm EST Monday 6 July 2020 (issued every 10 minutes, with the page automatically refreshed every 10 minutes)

About weather observations | Map of weather stations | Latest weather observations for VIC | Other Formats
Station Details ID: 084144 Name: MOUNT NOWA NOWA Lat: -37.69 Lon: 148.09 Height: 350.0 m
Data from the previous 72 hours. | See also: Recent months at Mount Nowa Nowa
Date/Time
EST
Temp
°C
App
Temp
°C
Dew
Point
°C
Rel
Hum
%
Delta-T
°C
Wind Press
QNH
hPa
Press
MSL
hPa
Rain since
9am
mm
Dir  Spd
km/h
Gust
km/h
Spd
kts
Gust
kts
06/10:00pm 8.7 4.6 6.0 83 1.3 W 17 26 9 14 - - 0.0
06/09:30pm 8.8 4.3 6.1 83 1.3 W 19 28 10 15 - - 0.0
06/09:00pm 8.8 4.7 6.1 83 1.3 W 17 30 9 16 - - 0.0
06/08:30pm 8.9 4.8 6.2 83 1.3 W 17 32 9 17 - - 0.0
06/08:00pm 9.1 5.0 6.2 82 1.4 W 17 30 9 16 - - 0.0
06/07:30pm 9.0 4.9 6.3 83 1.3 W 17 26 9 14 - - 0.0
06/07:00pm 9.1 5.0 6.4 83 1.3 W 17 28 9 15 - - 0.0
06/06:30pm 8.9 5.6 6.5 85 1.1 W 13 22 7 12 - - 0.0
06/06:00pm 8.9 5.7 6.7 86 1.0 W 13 19 7 10 - - 0.0
06/05:30pm 8.9 5.7 6.9 87 1.0 W 13 20 7 11 - - 0.0
06/05:00pm 8.8 6.4 7.1 89 0.8 W 9 13 5 7 - - 0.0
06/04:30pm 8.9 7.0 6.9 87 1.0 W 6 7 3 4 - - 0.0
06/04:00pm 8.9 6.9 7.2 89 0.8 W 7 11 4 6 - - 0.0
06/03:30pm 8.7 6.7 7.2 90 0.7 W 7 13 4 7 - - 0.0
06/03:00pm 9.3 6.3 6.2 81 1.5 W 11 20 6 11 - - 0.0
06/02:30pm 9.5 6.5 6.2 80 1.6 W 11 22 6 12 - - 0.0
06/02:00pm 9.5 6.2 6.6 82 1.4 W 13 24 7 13 - - 0.0
06/01:30pm 9.6 6.2 6.0 78 1.7 W 13 24 7 13 - - 0.0
06/01:00pm 9.5 7.1 6.8 83 1.3 W 9 17 5 9 - - 0.0
06/12:30pm 8.8 5.9 6.6 86 1.0 WNW 11 24 6 13 - - 0.0
06/12:00pm 8.7 5.5 6.7 87 0.9 W 13 20 7 11 - - 0.0
06/11:30am 8.3 4.3 6.6 89 0.8 W 17 30 9 16 - - 0.0
06/11:00am 7.8 4.7 7.2 96 0.3 W 13 22 7 12 - - 0.0
06/10:30am 7.2 3.9 6.6 96 0.3 W 13 19 7 10 - - 0.0
06/10:00am 7.5 3.4 6.3 92 0.6 W 17 28 9 15 - - 0.0
06/09:30am 7.3 3.2 6.4 94 0.4 W 17 28 9 15 - - 0.0
06/09:00am 7.1 3.0 6.0 93 0.5 W 17 30 9 16 - - 0.0
06/08:30am 7.2 3.4 5.8 91 0.6 W 15 20 8 11 - - 0.0
06/08:00am 6.9 3.5 5.8 93 0.5 W 13 19 7 10 - - 0.0
06/07:30am 6.7 3.4 6.3 97 0.2 W 13 19 7 10 - - 0.0
06/07:00am 6.5 3.2 6.2 98 0.1 W 13 15 7 8 - - 0.0
06/06:30am 6.6 2.9 6.5 99 0.0 W 15 22 8 12 - - 0.0
06/06:00am 6.7 3.4 6.4 98 0.1 W 13 22 7 12 - - 0.0
06/05:30am 6.9 3.3 6.6 98 0.1 W 15 20 8 11 - - 0.0
06/05:00am 7.2 3.3 6.9 98 0.1 W 17 26 9 14 - - 0.0
06/04:30am 7.3 3.4 7.0 98 0.1 W 17 28 9 15 - - 0.0
06/04:00am 7.5 4.4 7.1 97 0.2 WSW 13 22 7 12 - - 0.0
06/03:30am 7.5 3.9 6.9 96 0.3 W 15 26 8 14 - - 0.0
06/03:00am 7.5 3.9 6.8 95 0.3 W 15 24 8 13 - - 0.0
06/02:30am 7.4 3.8 6.8 96 0.3 W 15 24 8 13 - - 0.0
06/02:00am 7.4 3.4 6.7 95 0.3 W 17 28 9 15 - - 0.0
06/01:30am 7.5 3.5 6.6 94 0.4 WSW 17 24 9 13 - - 0.0
06/01:00am 7.7 3.6 6.2 90 0.7 W 17 37 9 20 - - 0.0
06/12:30am 7.6 3.5 6.1 90 0.7 W 17 26 9 14 - - 0.0
06/12:00am 7.5 3.0 6.0 90 0.7 W 19 30 10 16 - - 0.0
 
Date/Time
EST
Temp
°C
App
Temp
°C
Dew
Point
°C
Rel
Hum
%
Delta-T
°C
Wind Press
QNH
hPa
Press
MSL
hPa
Rain since
9am
mm
Dir  Spd
km/h
Gust
km/h
Spd
kts
Gust
kts
05/11:30pm 7.7 3.2 6.0 89 0.8 W 19 33 10 18 - - 0.0
05/11:00pm 7.9 3.3 5.7 86 1.0 W 19 32 10 17 - - 0.0
05/10:30pm 8.1 3.5 5.6 84 1.1 W 19 28 10 15 - - 0.0
05/10:00pm 8.4 3.8 5.7 83 1.2 W 19 35 10 19 - - 0.0
05/09:30pm 8.7 4.1 5.8 82 1.3 W 19 35 10 19 - - 0.0
05/09:00pm 8.8 4.2 5.7 81 1.4 W 19 33 10 18 - - 0.0
05/08:30pm 8.9 4.1 5.8 81 1.4 W 20 35 11 19 - - 0.0
05/08:00pm 8.9 4.3 5.8 81 1.4 W 19 37 10 20 - - 0.0
05/07:30pm 8.9 3.7 5.6 80 1.5 WSW 22 37 12 20 - - 0.0
05/07:00pm 9.2 5.0 5.8 79 1.6 W 17 28 9 15 - - 0.0
05/06:30pm 9.4 5.2 5.9 79 1.6 W 17 32 9 17 - - 0.0
05/06:00pm 9.7 5.2 5.9 77 1.8 W 19 37 10 20 - - 0.0
05/05:30pm 9.8 5.7 6.0 77 1.8 W 17 28 9 15 - - 0.0
05/05:00pm 10.1 6.0 6.3 77 1.8 W 17 35 9 19 - - 0.0
05/04:30pm 10.1 6.8 6.3 77 1.8 W 13 24 7 13 - - 0.0
05/04:00pm 10.2 6.1 6.2 76 1.9 W 17 28 9 15 - - 0.0
05/03:30pm 11.0 7.4 6.7 75 2.1 W 15 33 8 18 - - 0.0
05/03:00pm 9.9 5.5 6.6 80 1.6 W 19 32 10 17 - - 0.0
05/02:30pm 10.1 6.1 6.6 79 1.7 W 17 39 9 21 - - 0.0
05/02:00pm 10.2 5.6 6.4 77 1.8 W 20 35 11 19 - - 0.0
05/01:30pm 10.1 5.5 6.4 78 1.8 WSW 20 35 11 19 - - 0.0
05/01:00pm 10.1 6.0 6.4 78 1.8 WSW 17 24 9 13 - - 0.0
05/12:30pm 9.8 5.1 6.2 78 1.7 WSW 20 33 11 18 - - 0.0
05/12:00pm 9.7 4.3 6.2 79 1.7 WSW 24 39 13 21 - - 0.0
05/11:30am 9.9 5.4 6.3 78 1.7 W 19 35 10 19 - - 0.0
05/11:00am 9.9 4.9 6.4 79 1.7 W 22 37 12 20 - - 0.0
05/10:30am 9.3 3.9 6.4 82 1.4 WSW 24 39 13 21 - - 0.0
05/10:00am 9.0 4.5 6.3 83 1.3 W 19 37 10 20 - - 0.0
05/09:30am 8.6 3.5 6.2 85 1.1 W 22 35 12 19 - - 0.0
05/09:00am 8.6 3.5 6.2 85 1.1 W 22 43 12 23 - - 0.2
05/08:30am 8.4 3.0 6.5 88 0.9 W 24 43 13 23 - - 0.2
05/08:00am 8.2 3.5 6.2 87 0.9 W 20 41 11 22 - - 0.2
05/07:30am 8.2 3.1 6.0 86 1.0 W 22 39 12 21 - - 0.2
05/07:00am 8.2 3.7 6.0 86 1.0 W 19 30 10 16 - - 0.2
05/06:30am 8.2 3.1 6.0 86 1.0 W 22 39 12 21 - - 0.2
05/06:00am 8.1 3.0 6.1 87 0.9 W 22 35 12 19 - - 0.2
05/05:30am 7.9 2.9 6.4 90 0.7 W 22 41 12 22 - - 0.2
05/05:00am 7.9 3.0 6.7 92 0.6 W 22 41 12 22 - - 0.2
05/04:30am 7.9 3.0 6.8 93 0.5 W 22 41 12 22 - - 0.2
05/04:14am 8.0 1.9 6.8 92 0.6 W 28 50 15 27 - - 0.2
05/04:00am 8.0 2.3 6.6 91 0.7 WSW 26 44 14 24 - - 0.2
05/03:30am 8.2 2.9 6.7 90 0.7 W 24 44 13 24 - - 0.2
05/03:00am 8.3 3.4 6.8 90 0.7 WSW 22 43 12 23 - - 0.2
05/02:30am 8.5 2.5 7.0 90 0.7 WSW 28 48 15 26 - - 0.2
05/02:00am 8.4 3.1 6.9 90 0.7 WSW 24 43 13 23 - - 0.2
05/01:30am 8.3 3.4 6.9 91 0.7 W 22 41 12 22 - - 0.2
05/01:00am 8.4 3.1 7.0 91 0.7 W 24 48 13 26 - - 0.2
05/12:30am 8.4 3.1 6.9 90 0.7 W 24 41 13 22 - - 0.2
05/12:00am 8.5 3.2 7.0 90 0.7 W 24 41 13 22 - - 0.2
 
Date/Time
EST
Temp
°C
App
Temp
°C
Dew
Point
°C
Rel
Hum
%
Delta-T
°C
Wind Press
QNH
hPa
Press
MSL
hPa
Rain since
9am
mm
Dir  Spd
km/h
Gust
km/h
Spd
kts
Gust
kts
04/11:30pm 8.9 3.3 7.2 89 0.8 W 26 52 14 28 - - 0.2
04/11:00pm 9.1 3.2 7.4 89 0.8 W 28 48 15 26 - - 0.2
04/10:36pm 9.1 3.2 7.5 90 0.8 W 28 50 15 27 - - 0.2
04/10:30pm 9.1 4.0 7.7 91 0.7 W 24 39 13 21 - - 0.2
04/10:00pm 9.1 4.0 7.5 90 0.8 WSW 24 41 13 22 - - 0.2
04/09:35pm 9.2 3.3 7.6 90 0.8 WSW 28 50 15 27 - - 0.2
04/09:30pm 9.3 3.8 7.7 90 0.8 WSW 26 46 14 25 - - 0.2
04/09:00pm 9.3 3.4 7.4 88 0.9 W 28 48 15 26 - - 0.2
04/08:47pm 9.3 3.4 7.4 88 0.9 W 28 46 15 25 - - 0.2
04/08:30pm 9.2 3.7 7.5 89 0.8 WSW 26 50 14 27 - - 0.2
04/08:00pm 9.4 4.6 7.2 86 1.1 WSW 22 37 12 20 - - 0.2
04/07:30pm 8.8 4.5 7.1 89 0.8 W 19 33 10 18 - - 0.2
04/07:01pm 9.1 3.1 7.1 87 1.0 W 28 48 15 26 - - 0.2
04/07:00pm 9.2 3.6 7.0 86 1.1 W 26 48 14 26 - - 0.2
04/06:30pm 9.6 4.6 6.3 80 1.6 W 22 41 12 22 - - 0.2
04/06:00pm 9.3 5.6 6.4 82 1.4 W 15 24 8 13 - - 0.2
04/05:30pm 9.5 5.0 6.2 80 1.6 W 19 33 10 18 - - 0.2
04/05:00pm 9.5 3.4 6.4 81 1.5 W 28 50 15 27 - - 0.2
04/04:56pm 9.6 3.1 6.3 80 1.6 W 30 50 16 27 - - 0.2
04/04:30pm 9.7 4.7 6.4 80 1.6 W 22 41 12 22 - - 0.2
04/04:00pm 9.5 5.1 6.6 82 1.4 W 19 35 10 19 - - 0.2
04/03:30pm 9.6 5.0 6.3 80 1.6 W 20 35 11 19 - - 0.2
04/03:00pm 9.4 4.4 6.5 82 1.4 WSW 22 41 12 22 - - 0.2
04/02:30pm 9.4 4.9 5.9 79 1.6 W 19 44 10 24 - - 0.0
04/02:00pm 9.2 5.4 5.8 79 1.6 W 15 28 8 15 - - 0.0
04/01:30pm 8.8 4.9 5.2 78 1.6 W 15 26 8 14 - - 0.0
04/01:00pm 8.8 4.5 5.2 78 1.6 W 17 28 9 15 - - 0.0
04/12:30pm 9.0 4.6 5.0 76 1.8 W 17 30 9 16 - - 0.0
04/12:00pm 9.0 4.2 4.4 73 2.1 W 19 30 10 16 - - 0.0
04/11:30am 8.8 4.2 3.8 71 2.2 W 17 26 9 14 - - 0.0
04/11:00am 7.9 4.5 3.8 75 1.8 W 11 20 6 11 - - 0.0
04/10:30am 7.1 3.2 3.2 76 1.7 W 13 20 7 11 - - 0.0
04/10:00am 6.8 2.4 2.9 76 1.7 W 15 22 8 12 - - 0.0
04/09:30am 6.1 1.4 2.9 80 1.4 W 17 28 9 15 - - 0.0
04/09:00am 5.7 1.3 2.7 81 1.3 W 15 24 8 13 - - 7.4
04/08:30am 5.4 0.6 2.6 82 1.2 W 17 26 9 14 - - 7.4
04/08:00am 5.0 0.2 2.5 84 1.0 W 17 32 9 17 - - 7.4
04/07:30am 4.8 -0.6 2.7 86 0.9 W 20 33 11 18 - - 7.4
04/07:00am 4.7 -0.7 2.7 87 0.8 W 20 32 11 17 - - 7.4
04/06:30am 4.7 -0.6 3.2 90 0.6 W 20 33 11 18 - - 7.4
04/06:00am 4.7 -0.5 3.5 92 0.5 W 20 41 11 22 - - 7.4
04/05:30am 4.8 -0.4 3.5 91 0.6 W 20 32 11 17 - - 7.4
04/05:00am 4.9 -0.3 3.6 91 0.6 W 20 32 11 17 - - 7.4
04/04:30am 5.1 0.0 3.9 92 0.5 W 20 33 11 18 - - 7.4
04/04:00am 4.8 -0.4 3.8 93 0.4 W 20 33 11 18 - - 7.4
04/03:30am 4.8 -1.2 3.6 92 0.5 W 24 41 13 22 - - 7.4
04/03:00am 4.3 -1.3 3.3 93 0.4 W 22 32 12 17 - - 7.4
04/02:30am 4.1 -1.0 3.2 94 0.4 W 19 32 10 17 - - 7.4
04/02:00am 4.1 -1.6 3.1 93 0.4 W 22 35 12 19 - - 7.4
04/01:30am 4.0 -1.3 3.1 94 0.4 W 20 32 11 17 - - 7.4
04/01:00am 4.1 -1.0 3.1 93 0.4 W 19 35 10 19 - - 7.4
04/12:30am 4.0 -1.1 2.8 92 0.5 W 19 33 10 18 - - 7.4
04/12:00am 3.7 -1.4 2.8 94 0.4 W 19 28 10 15 - - 7.4
 
Date/Time
EST
Temp
°C
App
Temp
°C
Dew
Point
°C
Rel
Hum
%
Delta-T
°C
Wind Press
QNH
hPa
Press
MSL
hPa
Rain since
9am
mm
Dir  Spd
km/h
Gust
km/h
Spd
kts
Gust
kts
03/11:30pm 3.6 -1.1 3.0 96 0.2 W 17 26 9 14 - - 7.4
03/11:00pm 3.6 0.1 3.5 99 0.0 WNW 11 19 6 10 - - 7.4
03/10:30pm 3.7 0.2 3.6 99 0.0 WNW 11 19 6 10 - - 7.4

Other formats

Comma delimited format used in spreadsheet applications
http://www.bom.gov.au/fwo/IDV60801/IDV60801.94930.axf

JavaScript Object Notation format (JSON) in row-major order
http://www.bom.gov.au/fwo/IDV60801/IDV60801.94930.json

Data quality

Most of these data are generated automatically and are frequently updated. Quality checks on data are not normally performed. It is possible for incorrect values to appear. Refer to information at About Latest Weather Observations and please check the disclaimer before using these data.